KNXF

MCOLF Camp Pendleton (Red Beach) Airport

Oceanside, California, USA
METAR KNXF 201756Z AUTO 28007KT 10SM -RA CLR 23/13 A2995 RMK AO2 RAB1659 SLP225 6//// T02330128 10267 20167 58001 PNO
Observed Flight Rules
Oct-20 @ 17:56 UTC (11 minutes ago) Visual Flight Rules
Wind Visibility Clouds Conditions
280° at 7 knots 10 miles
  • Clear skies
  • Light Rain
Temperatures Readings
Current 23°C / 73°F
Dewpoint 13°C / 55°F
Humidity 53%
Altimeter 29.95" Hg
Pressure 1022.5 hPa
Elevation 27
METAR KNXF 201756Z AUTO 28007KT 10SM -RA CLR 23/13 A2995 RMK AO2 RAB1659 SLP225 6//// T02330128 10267 20167 58001 PNO
Observed Flight Rules
Oct-20 @ 17:56 UTC
(11 minutes ago)
VFR
Wind Visibility
280° at 7 knots 10 miles
Clouds
  • Clear skies
Conditions
  • Light Rain
Temperature Dewpoint
23°C / 73°F 13°C / 55°F
Humidity Altimeter Pressure
53% 29.95" Hg 1022.5 hPa